Holloman AFB, New Mexico
Current Conditions -  °F | °C
As of 11:58 AM on Thursday 18 Dec 2014 (Local Time) from KHMN Reporting Station
Clear Clear  
Wind Chill: 53°   Ceiling: Unl
Heat Index: 53°   Visibility: 10mi
Dew Point: 34°   Wind: 7mph
Humidity: 49%   Direction: NA
Pressure: 30.09"   Gusts: NA
Location:  32.85°N, 106.1°W
Report Text: KHMN 181858Z AUTO VRB06KT 10SM CLR 12/01 A3009 RMK AO2 SLP159 T01160011 $
Loading
Personal Weather Stations






























Interactive Weather Map New forecast layout! Learn more

10-Day Weather Forecast

Advertisements
Track Severe Weather on mobile